createdAt,value
2022-09-10T00:00:13.278Z,101925.00
2022-09-10T00:02:47.090Z,101917.00
2022-09-10T00:05:20.073Z,101907.00
2022-09-10T00:07:52.827Z,101896.00
2022-09-10T00:10:25.895Z,101895.00
2022-09-10T00:12:58.715Z,101887.00
2022-09-10T00:15:31.933Z,101880.00
2022-09-10T00:18:05.295Z,101880.00
2022-09-10T00:20:38.185Z,101879.00
2022-09-10T00:23:11.263Z,101870.00
2022-09-10T00:25:44.709Z,101871.00
2022-09-10T00:28:18.290Z,101870.00
2022-09-10T00:30:52.844Z,101864.00
2022-09-10T00:33:26.828Z,101853.00
2022-09-10T00:36:01.106Z,101854.00
2022-09-10T00:38:34.148Z,101852.00
2022-09-10T00:41:10.871Z,101852.00
2022-09-10T00:44:04.292Z,101840.00
2022-09-10T00:46:47.701Z,101837.00
2022-09-10T00:49:23.522Z,101836.00
2022-09-10T00:52:01.927Z,101830.00
2022-09-10T00:54:37.899Z,101819.00
2022-09-10T00:57:13.746Z,101815.00
2022-09-10T00:59:48.984Z,101812.00
2022-09-10T01:02:22.090Z,101805.00
2022-09-10T01:04:56.220Z,101802.00
2022-09-10T01:07:31.191Z,101804.00
2022-09-10T01:10:06.286Z,101808.00
2022-09-10T01:12:49.755Z,101798.00
2022-09-10T01:15:24.995Z,101796.00
2022-09-10T01:18:15.543Z,101787.00
2022-09-10T01:20:57.978Z,101783.00
2022-09-10T01:23:48.964Z,101786.00
2022-09-10T01:26:32.599Z,101776.00
2022-09-10T01:29:10.243Z,101785.00
2022-09-10T01:31:53.683Z,101787.00
2022-09-10T01:34:31.698Z,101786.00
2022-09-10T01:37:06.335Z,101777.00
2022-09-10T01:39:40.453Z,101777.00
2022-09-10T01:42:13.397Z,101773.00
2022-09-10T01:44:48.462Z,101780.00
2022-09-10T01:47:26.377Z,101772.00
2022-09-10T01:50:30.916Z,101773.00
2022-09-10T01:53:11.857Z,101772.00
2022-09-10T01:55:52.433Z,101779.00
2022-09-10T01:58:36.282Z,101768.00
2022-09-10T02:01:19.860Z,101760.00
2022-09-10T02:03:54.951Z,101758.00
2022-09-10T02:06:30.163Z,101763.00
2022-09-10T02:09:05.386Z,101760.00
2022-09-10T02:11:49.235Z,101756.00
2022-09-10T02:14:23.179Z,101750.00
2022-09-10T02:17:04.192Z,101748.00
2022-09-10T02:19:37.186Z,101747.00
2022-09-10T02:22:10.703Z,101748.00
2022-09-10T02:24:43.237Z,101754.00
2022-09-10T02:27:16.797Z,101747.00
2022-09-10T02:29:49.902Z,101754.00
2022-09-10T02:32:22.828Z,101753.00
2022-09-10T02:34:55.454Z,101754.00
2022-09-10T02:37:28.356Z,101754.00
2022-09-10T02:40:02.196Z,101748.00
2022-09-10T02:42:35.925Z,101747.00
2022-09-10T02:45:10.125Z,101738.00
2022-09-10T02:47:42.966Z,101745.00
2022-09-10T02:50:16.044Z,101753.00
2022-09-10T02:52:48.843Z,101757.00
2022-09-10T02:55:21.651Z,101757.00
2022-09-10T02:57:54.467Z,101746.00
2022-09-10T03:00:27.422Z,101746.00
2022-09-10T03:03:03.108Z,101749.00
2022-09-10T03:05:34.791Z,101736.00
2022-09-10T03:08:08.155Z,101737.00
2022-09-10T03:10:41.223Z,101742.00
2022-09-10T03:13:14.812Z,101732.00
2022-09-10T03:15:50.552Z,101736.00
2022-09-10T03:18:24.945Z,101735.00
2022-09-10T03:20:57.976Z,101723.00
2022-09-10T03:23:31.660Z,101729.00
2022-09-10T03:26:04.992Z,101714.00
2022-09-10T03:28:37.934Z,101710.00
2022-09-10T03:31:11.680Z,101710.00
2022-09-10T03:33:44.872Z,101707.00
2022-09-10T03:36:17.758Z,101712.00
2022-09-10T03:38:50.838Z,101709.00
2022-09-10T03:41:23.706Z,101707.00
2022-09-10T03:43:56.963Z,101699.00
2022-09-10T03:46:29.877Z,101690.00
2022-09-10T03:49:06.104Z,101702.00
2022-09-10T03:51:39.097Z,101694.00
2022-09-10T03:54:12.389Z,101702.00
2022-09-10T03:56:45.876Z,101698.00
2022-09-10T03:59:19.321Z,101696.00
2022-09-10T04:01:52.746Z,101684.00
2022-09-10T04:04:25.652Z,101699.00
2022-09-10T04:06:58.892Z,101696.00
2022-09-10T04:09:31.648Z,101698.00
2022-09-10T04:12:05.636Z,101702.00
2022-09-10T04:14:39.093Z,101696.00
2022-09-10T04:17:12.312Z,101701.00
2022-09-10T04:19:45.489Z,101689.00
2022-09-10T04:22:18.335Z,101687.00
2022-09-10T04:24:51.254Z,101686.00
2022-09-10T04:27:24.192Z,101681.00
2022-09-10T04:29:57.031Z,101685.00
2022-09-10T04:32:29.743Z,101688.00
2022-09-10T04:35:04.065Z,101695.00
2022-09-10T04:37:38.273Z,101687.00
2022-09-10T04:40:12.415Z,101679.00
2022-09-10T04:42:45.426Z,101681.00
2022-09-10T04:45:18.367Z,101679.00
2022-09-10T04:47:51.426Z,101677.00
2022-09-10T04:50:24.153Z,101671.00
2022-09-10T04:52:56.823Z,101678.00
2022-09-10T04:55:29.748Z,101672.00
2022-09-10T04:58:03.575Z,101672.00
2022-09-10T05:00:36.328Z,101671.00
2022-09-10T05:03:09.593Z,101666.00
2022-09-10T05:05:44.110Z,101672.00
2022-09-10T05:08:16.907Z,101667.00
2022-09-10T05:10:49.745Z,101678.00
2022-09-10T05:13:22.680Z,101666.00
2022-09-10T05:15:55.586Z,101680.00
2022-09-10T05:18:28.845Z,101676.00
2022-09-10T05:21:03.045Z,101676.00
2022-09-10T05:23:35.816Z,101681.00
2022-09-10T05:26:08.739Z,101673.00
2022-09-10T05:28:41.503Z,101675.00
2022-09-10T05:31:14.645Z,101681.00
2022-09-10T05:33:48.075Z,101677.00
2022-09-10T05:36:21.263Z,101678.00
2022-09-10T05:38:53.969Z,101681.00
2022-09-10T05:41:27.030Z,101678.00
2022-09-10T05:43:59.879Z,101677.00
2022-09-10T05:46:32.811Z,101687.00
2022-09-10T05:49:10.432Z,101688.00
2022-09-10T05:51:43.312Z,101697.00
2022-09-10T05:54:16.246Z,101690.00
2022-09-10T05:56:49.277Z,101684.00
2022-09-10T05:59:22.479Z,101690.00
2022-09-10T06:01:55.532Z,101695.00
2022-09-10T06:04:28.449Z,101692.00
2022-09-10T06:07:02.203Z,101698.00
2022-09-10T06:09:35.119Z,101686.00
2022-09-10T06:12:12.169Z,101698.00
2022-09-10T06:14:45.010Z,101689.00
2022-09-10T06:17:19.071Z,101693.00
2022-09-10T06:19:53.329Z,101692.00
2022-09-10T06:22:26.863Z,101695.00
2022-09-10T06:24:59.626Z,101689.00
2022-09-10T06:27:32.425Z,101683.00
2022-09-10T06:30:05.327Z,101681.00
2022-09-10T06:32:38.274Z,101691.00
2022-09-10T06:35:12.327Z,101683.00
2022-09-10T06:37:45.089Z,101681.00
2022-09-10T06:40:18.103Z,101675.00
2022-09-10T06:42:50.810Z,101678.00
2022-09-10T06:45:23.771Z,101681.00
2022-09-10T06:50:30.651Z,101683.00
2022-09-10T06:53:03.704Z,101687.00
2022-09-10T06:55:37.984Z,101701.00
2022-09-10T06:58:11.115Z,101714.00
2022-09-10T07:00:45.017Z,101712.00
2022-09-10T07:03:18.197Z,101715.00
2022-09-10T07:05:51.303Z,101711.00
2022-09-10T07:08:24.290Z,101713.00
2022-09-10T07:10:58.511Z,101713.00
2022-09-10T07:13:31.544Z,101717.00
2022-09-10T07:16:04.585Z,101726.00
2022-09-10T07:18:37.798Z,101722.00
2022-09-10T07:21:15.592Z,101735.00
2022-09-10T07:23:50.612Z,101725.00
2022-09-10T07:26:23.995Z,101732.00
2022-09-10T07:28:57.147Z,101716.00
2022-09-10T07:31:45.404Z,101721.00
2022-09-10T07:34:17.604Z,101722.00
2022-09-10T07:36:52.566Z,101729.00
2022-09-10T07:39:26.031Z,101724.00
2022-09-10T07:41:58.931Z,101722.00
2022-09-10T07:44:31.852Z,101717.00
2022-09-10T07:47:05.266Z,101717.00
2022-09-10T07:49:38.118Z,101721.00
2022-09-10T07:52:10.954Z,101720.00
2022-09-10T07:54:43.902Z,101718.00
2022-09-10T07:57:16.510Z,101719.00
2022-09-10T07:59:49.412Z,101719.00
2022-09-10T08:02:23.545Z,101728.00
2022-09-10T08:04:56.418Z,101720.00
2022-09-10T08:07:29.351Z,101723.00
2022-09-10T08:10:02.074Z,101722.00
2022-09-10T08:12:36.177Z,101732.00
2022-09-10T08:15:10.009Z,101728.00
2022-09-10T08:17:42.809Z,101730.00
2022-09-10T08:20:15.834Z,101727.00
2022-09-10T08:22:50.125Z,101726.00
2022-09-10T08:25:23.454Z,101724.00
2022-09-10T08:27:56.952Z,101725.00
2022-09-10T08:30:34.985Z,101731.00
2022-09-10T08:33:07.685Z,101724.00
2022-09-10T08:35:40.484Z,101717.00
2022-09-10T08:38:14.525Z,101722.00
2022-09-10T08:40:47.664Z,101720.00
2022-09-10T08:43:21.069Z,101726.00
2022-09-10T08:46:15.743Z,101735.00
2022-09-10T08:48:50.346Z,101736.00
2022-09-10T08:51:34.007Z,101734.00
2022-09-10T08:54:09.308Z,101734.00
2022-09-10T08:56:44.545Z,101732.00
2022-09-10T08:59:31.053Z,101737.00
2022-09-10T09:02:08.689Z,101727.00
2022-09-10T09:04:49.522Z,101730.00
2022-09-10T09:07:24.049Z,101740.00
2022-09-10T09:09:57.148Z,101732.00
2022-09-10T09:12:44.658Z,101735.00
2022-09-10T09:15:44.029Z,101734.00
2022-09-10T09:18:27.569Z,101735.00
2022-09-10T09:21:02.926Z,101738.00
2022-09-10T09:23:51.786Z,101735.00
2022-09-10T09:26:17.499Z,101735.00
2022-09-10T09:29:08.194Z,101739.00
2022-09-10T09:31:46.165Z,101741.00
2022-09-10T09:34:34.465Z,101742.00
2022-09-10T09:37:09.110Z,101742.00
2022-09-10T09:39:46.993Z,101741.00
2022-09-10T09:42:27.811Z,101739.00
2022-09-10T09:45:11.777Z,101737.00
2022-09-10T09:47:44.615Z,101732.00
2022-09-10T09:50:18.826Z,101725.00
2022-09-10T09:52:53.870Z,101727.00
2022-09-10T09:55:43.759Z,101720.00
2022-09-10T09:58:30.471Z,101712.00
2022-09-10T10:01:11.613Z,101709.00
2022-09-10T10:04:03.648Z,101710.00
2022-09-10T10:06:38.441Z,101703.00
2022-09-10T10:09:13.890Z,101697.00
2022-09-10T10:11:52.129Z,101703.00
2022-09-10T10:14:26.984Z,101691.00
2022-09-10T10:17:01.096Z,101684.00
2022-09-10T10:19:39.889Z,101688.00
2022-09-10T10:22:23.939Z,101689.00
2022-09-10T10:24:58.352Z,101685.00
2022-09-10T10:27:34.118Z,101682.00
2022-09-10T10:30:18.740Z,101675.00
2022-09-10T10:32:56.468Z,101661.00
2022-09-10T10:35:47.092Z,101654.00
2022-09-10T10:38:30.722Z,101656.00
2022-09-10T10:41:32.798Z,101651.00
2022-09-10T10:44:34.006Z,101658.00
2022-09-10T10:47:26.654Z,101650.00
2022-09-10T10:50:23.245Z,101646.00
2022-09-10T10:53:03.594Z,101639.00
2022-09-10T10:55:50.107Z,101636.00
2022-09-10T10:58:34.215Z,101630.00
2022-09-10T11:01:12.393Z,101626.00
2022-09-10T11:03:50.744Z,101620.00
2022-09-10T11:06:28.341Z,101630.00
2022-09-10T11:09:09.139Z,101630.00
2022-09-10T11:12:08.184Z,101632.00
2022-09-10T11:14:55.305Z,101618.00
2022-09-10T11:17:45.243Z,101622.00
2022-09-10T11:20:32.458Z,101609.00
2022-09-10T11:23:23.963Z,101622.00
2022-09-10T11:26:02.809Z,101618.00
2022-09-10T11:28:46.852Z,101618.00
2022-09-10T11:31:26.214Z,101612.00
2022-09-10T11:34:16.196Z,101618.00
2022-09-10T11:36:53.973Z,101613.00
2022-09-10T11:39:40.784Z,101590.00
2022-09-10T11:42:34.326Z,101596.00
2022-09-10T11:45:33.161Z,101603.00
2022-09-10T11:48:11.146Z,101601.00
2022-09-10T11:51:04.305Z,101605.00
2022-09-10T11:53:37.469Z,101606.00
2022-09-10T11:56:37.724Z,101589.00
2022-09-10T11:59:15.758Z,101593.00
2022-09-10T12:01:56.641Z,101592.00
2022-09-10T12:04:42.719Z,101598.00
2022-09-10T12:07:22.240Z,101581.00
2022-09-10T12:09:59.633Z,101583.00
2022-09-10T12:12:34.456Z,101593.00
2022-09-10T12:15:12.478Z,101591.00
2022-09-10T12:17:47.570Z,101590.00
2022-09-10T12:20:22.416Z,101588.00
2022-09-10T12:22:57.305Z,101596.00
2022-09-10T12:25:34.586Z,101590.00
2022-09-10T12:28:09.599Z,101589.00
2022-09-10T12:30:44.821Z,101580.00
2022-09-10T12:33:23.504Z,101580.00
2022-09-10T12:35:56.545Z,101583.00
2022-09-10T12:39:04.217Z,101575.00
2022-09-10T12:41:39.280Z,101583.00
2022-09-10T12:44:31.273Z,101585.00
2022-09-10T12:47:36.183Z,101583.00
2022-09-10T12:50:10.726Z,101590.00
2022-09-10T12:52:58.060Z,101592.00
2022-09-10T12:55:42.319Z,101586.00
2022-09-10T12:58:33.571Z,101588.00
2022-09-10T13:01:11.355Z,101590.00
2022-09-10T13:03:47.209Z,101590.00
2022-09-10T13:06:20.235Z,101589.00
2022-09-10T13:08:53.559Z,101596.00
2022-09-10T13:11:31.319Z,101593.00
2022-09-10T13:14:05.869Z,101581.00
2022-09-10T13:16:40.515Z,101589.00
2022-09-10T13:19:21.867Z,101584.00
2022-09-10T13:21:58.383Z,101578.00
2022-09-10T13:24:42.725Z,101580.00
2022-09-10T13:27:23.868Z,101578.00
2022-09-10T13:30:02.465Z,101580.00
2022-09-10T13:32:37.522Z,101578.00
2022-09-10T13:35:24.183Z,101579.00
2022-09-10T13:38:18.367Z,101580.00
2022-09-10T13:41:05.273Z,101583.00
2022-09-10T13:44:13.583Z,101584.00
2022-09-10T13:46:48.527Z,101587.00
2022-09-10T13:49:42.994Z,101585.00
2022-09-10T13:52:18.073Z,101582.00
2022-09-10T13:54:56.913Z,101570.00
2022-09-10T13:57:43.957Z,101571.00
2022-09-10T14:00:30.972Z,101556.00
2022-09-10T14:03:04.354Z,101557.00
2022-09-10T14:05:51.679Z,101560.00
2022-09-10T14:08:35.694Z,101560.00
2022-09-10T14:11:19.841Z,101552.00
2022-09-10T14:14:00.485Z,101552.00
2022-09-10T14:16:41.525Z,101541.00
2022-09-10T14:19:19.155Z,101536.00
2022-09-10T14:21:55.335Z,101532.00
2022-09-10T14:24:45.366Z,101531.00
2022-09-10T14:27:34.468Z,101514.00
2022-09-10T14:30:28.413Z,101502.00
2022-09-10T14:33:03.414Z,101497.00
2022-09-10T14:35:44.102Z,101496.00
2022-09-10T14:38:36.014Z,101493.00
2022-09-10T14:41:11.918Z,101487.00
2022-09-10T14:43:44.498Z,101480.00
2022-09-10T14:46:35.912Z,101483.00
2022-09-10T14:49:13.003Z,101472.00
2022-09-10T14:51:46.210Z,101462.00
2022-09-10T14:54:22.246Z,101462.00
2022-09-10T14:56:56.091Z,101463.00
2022-09-10T14:59:36.222Z,101468.00
2022-09-10T15:02:11.337Z,101461.00
2022-09-10T15:04:44.287Z,101464.00
2022-09-10T15:07:17.175Z,101455.00
2022-09-10T15:09:50.474Z,101455.00
2022-09-10T15:12:27.701Z,101449.00
2022-09-10T15:15:01.919Z,101451.00
2022-09-10T15:17:35.054Z,101449.00
2022-09-10T15:20:08.297Z,101439.00
2022-09-10T15:22:41.997Z,101440.00
2022-09-10T15:25:19.810Z,101446.00
2022-09-10T15:27:53.043Z,101442.00
2022-09-10T15:30:27.573Z,101440.00
2022-09-10T15:33:00.615Z,101456.00
2022-09-10T15:35:33.571Z,101447.00
2022-09-10T15:38:06.505Z,101444.00
2022-09-10T15:40:39.272Z,101440.00
2022-09-10T15:43:12.321Z,101442.00
2022-09-10T15:45:45.212Z,101435.00
2022-09-10T15:48:18.367Z,101425.00
2022-09-10T15:50:51.891Z,101435.00
2022-09-10T15:53:24.760Z,101430.00
2022-09-10T15:55:57.779Z,101423.00
2022-09-10T15:58:30.958Z,101424.00
2022-09-10T16:01:09.479Z,101420.00
2022-09-10T16:03:49.774Z,101418.00
2022-09-10T16:06:23.033Z,101418.00
2022-09-10T16:09:00.416Z,101414.00
2022-09-10T16:11:34.630Z,101416.00
2022-09-10T16:14:10.171Z,101411.00
2022-09-10T16:16:43.405Z,101420.00
2022-09-10T16:19:16.877Z,101427.00
2022-09-10T16:21:50.206Z,101435.00
2022-09-10T16:24:25.508Z,101431.00
2022-09-10T16:26:58.467Z,101438.00
2022-09-10T16:29:31.440Z,101435.00
2022-09-10T16:32:04.521Z,101435.00
2022-09-10T16:34:37.291Z,101431.00
2022-09-10T16:37:10.446Z,101431.00
2022-09-10T16:39:43.343Z,101431.00
2022-09-10T16:42:16.311Z,101436.00
2022-09-10T16:44:49.468Z,101446.00
2022-09-10T16:47:22.189Z,101448.00
2022-09-10T16:49:55.628Z,101435.00
2022-09-10T16:52:28.360Z,101441.00
2022-09-10T16:55:01.170Z,101449.00
2022-09-10T16:57:34.300Z,101454.00
2022-09-10T17:00:08.671Z,101444.00
2022-09-10T17:02:42.688Z,101444.00
2022-09-10T17:05:15.874Z,101438.00
2022-09-10T17:07:48.867Z,101435.00
2022-09-10T17:10:22.643Z,101433.00
2022-09-10T17:12:55.823Z,101435.00
2022-09-10T17:15:28.909Z,101437.00
2022-09-10T17:18:04.838Z,101440.00
2022-09-10T17:20:37.815Z,101441.00
2022-09-10T17:23:11.291Z,101442.00
2022-09-10T17:25:44.117Z,101440.00
2022-09-10T17:28:16.853Z,101436.00
2022-09-10T17:30:50.204Z,101444.00
2022-09-10T17:33:27.178Z,101443.00
2022-09-10T17:36:05.716Z,101442.00
2022-09-10T17:38:39.060Z,101437.00
2022-09-10T17:41:12.151Z,101443.00
2022-09-10T17:43:46.417Z,101451.00
2022-09-10T17:46:20.982Z,101452.00
2022-09-10T17:48:55.352Z,101449.00
2022-09-10T17:51:33.107Z,101446.00
2022-09-10T17:54:06.010Z,101438.00
2022-09-10T17:56:40.990Z,101439.00
2022-09-10T17:59:16.287Z,101437.00
2022-09-10T18:01:49.144Z,101439.00
2022-09-10T18:04:23.446Z,101441.00
2022-09-10T18:06:56.363Z,101436.00
2022-09-10T18:09:29.464Z,101429.00
2022-09-10T18:12:03.606Z,101436.00
2022-09-10T18:14:36.657Z,101429.00
2022-09-10T18:17:09.614Z,101434.00
2022-09-10T18:19:42.899Z,101419.00
2022-09-10T18:22:15.749Z,101430.00
2022-09-10T18:24:49.043Z,101422.00
2022-09-10T18:27:21.977Z,101424.00
2022-09-10T18:29:54.863Z,101414.00
2022-09-10T18:32:33.047Z,101421.00
2022-09-10T18:35:06.504Z,101424.00
2022-09-10T18:37:39.405Z,101424.00
2022-09-10T18:40:12.907Z,101421.00
2022-09-10T18:42:46.818Z,101413.00
2022-09-10T18:45:19.885Z,101405.00
2022-09-10T18:47:53.051Z,101414.00
2022-09-10T18:50:27.030Z,101420.00
2022-09-10T18:53:00.662Z,101412.00
2022-09-10T18:55:33.541Z,101420.00
2022-09-10T18:58:06.433Z,101416.00
2022-09-10T19:00:39.076Z,101424.00
2022-09-10T19:03:12.033Z,101426.00
2022-09-10T19:05:44.837Z,101420.00
2022-09-10T19:08:19.065Z,101420.00
2022-09-10T19:10:54.576Z,101420.00
2022-09-10T19:13:27.361Z,101428.00
2022-09-10T19:16:01.969Z,101426.00
2022-09-10T19:18:35.412Z,101426.00
2022-09-10T19:21:08.717Z,101428.00
2022-09-10T19:23:41.979Z,101430.00
2022-09-10T19:26:25.926Z,101426.00
2022-09-10T19:29:00.530Z,101424.00
2022-09-10T19:31:34.768Z,101420.00
2022-09-10T19:34:10.454Z,101421.00
2022-09-10T19:36:45.377Z,101417.00
2022-09-10T19:39:19.737Z,101420.00
2022-09-10T19:41:52.545Z,101421.00
2022-09-10T19:44:25.647Z,101424.00
2022-09-10T19:46:58.682Z,101424.00
2022-09-10T19:49:31.578Z,101423.00
2022-09-10T19:52:05.748Z,101414.00
2022-09-10T19:54:38.626Z,101422.00
2022-09-10T19:57:11.414Z,101418.00
2022-09-10T19:59:44.200Z,101422.00
2022-09-10T20:02:17.730Z,101419.00
2022-09-10T20:04:50.630Z,101420.00
2022-09-10T20:07:23.467Z,101424.00
2022-09-10T20:09:57.315Z,101428.00
2022-09-10T20:12:30.419Z,101426.00
2022-09-10T20:15:03.341Z,101434.00
2022-09-10T20:17:36.299Z,101421.00
2022-09-10T20:20:09.571Z,101424.00
2022-09-10T20:22:42.290Z,101435.00
2022-09-10T20:25:15.225Z,101437.00
2022-09-10T20:27:48.095Z,101419.00
2022-09-10T20:30:20.928Z,101426.00
2022-09-10T20:32:53.801Z,101413.00
2022-09-10T20:35:28.131Z,101420.00
2022-09-10T20:38:01.504Z,101413.00
2022-09-10T20:40:34.214Z,101412.00
2022-09-10T20:43:07.109Z,101416.00
2022-09-10T20:45:41.211Z,101413.00
2022-09-10T20:48:14.072Z,101417.00
2022-09-10T20:50:57.292Z,101408.00
2022-09-10T20:53:30.787Z,101407.00
2022-09-10T20:56:08.552Z,101412.00
2022-09-10T20:58:42.474Z,101409.00
2022-09-10T21:01:18.149Z,101404.00
2022-09-10T21:03:52.508Z,101404.00
2022-09-10T21:06:27.145Z,101417.00
2022-09-10T21:08:59.925Z,101408.00
2022-09-10T21:11:34.684Z,101401.00
2022-09-10T21:14:08.560Z,101414.00
2022-09-10T21:16:43.251Z,101406.00
2022-09-10T21:19:18.806Z,101420.00
2022-09-10T21:21:51.953Z,101415.00
2022-09-10T21:24:25.651Z,101402.00
2022-09-10T21:26:58.429Z,101399.00
2022-09-10T21:29:31.242Z,101397.00
2022-09-10T21:32:04.350Z,101390.00
2022-09-10T21:34:37.626Z,101388.00
2022-09-10T21:37:11.796Z,101388.00
2022-09-10T21:39:44.716Z,101378.00
2022-09-10T21:42:18.946Z,101370.00
2022-09-10T21:44:51.779Z,101359.00
2022-09-10T21:47:25.125Z,101352.00
2022-09-10T21:49:58.162Z,101352.00
2022-09-10T21:52:31.587Z,101359.00
2022-09-10T21:55:04.516Z,101363.00
2022-09-10T21:57:38.557Z,101364.00
2022-09-10T22:00:14.294Z,101355.00
2022-09-10T22:02:47.371Z,101350.00
2022-09-10T22:05:20.471Z,101355.00
2022-09-10T22:07:54.401Z,101345.00
2022-09-10T22:10:28.515Z,101335.00
2022-09-10T22:13:01.386Z,101319.00
2022-09-10T22:15:36.219Z,101309.00
2022-09-10T22:18:09.589Z,101307.00
2022-09-10T22:20:42.766Z,101306.00
2022-09-10T22:23:16.273Z,101308.00
2022-09-10T22:25:49.137Z,101315.00
2022-09-10T22:28:23.090Z,101312.00
2022-09-10T22:31:00.179Z,101322.00
2022-09-10T22:33:32.978Z,101315.00
2022-09-10T22:36:21.611Z,101306.00
2022-09-10T22:39:01.122Z,101302.00
2022-09-10T22:41:36.088Z,101306.00
2022-09-10T22:44:08.895Z,101295.00
2022-09-10T22:46:42.166Z,101286.00
2022-09-10T22:49:16.254Z,101284.00
2022-09-10T22:51:49.136Z,101284.00
2022-09-10T22:54:22.209Z,101277.00
2022-09-10T22:56:55.162Z,101275.00
2022-09-10T22:59:29.109Z,101267.00
2022-09-10T23:02:01.985Z,101269.00
2022-09-10T23:04:34.729Z,101283.00
2022-09-10T23:07:07.717Z,101262.00
2022-09-10T23:09:40.532Z,101261.00
2022-09-10T23:12:13.466Z,101262.00
2022-09-10T23:14:46.662Z,101255.00
2022-09-10T23:17:22.567Z,101249.00
2022-09-10T23:19:53.712Z,101241.00
2022-09-10T23:22:26.769Z,101245.00
2022-09-10T23:25:00.147Z,101241.00
2022-09-10T23:27:33.358Z,101235.00
2022-09-10T23:30:07.720Z,101235.00
2022-09-10T23:32:41.055Z,101224.00
2022-09-10T23:35:14.430Z,101217.00
2022-09-10T23:37:47.778Z,101203.00
2022-09-10T23:40:26.273Z,101211.00
2022-09-10T23:42:54.895Z,101194.00
2022-09-10T23:45:30.738Z,101187.00
2022-09-10T23:48:06.593Z,101186.00
2022-09-10T23:50:39.407Z,101192.00
2022-09-10T23:53:12.501Z,101183.00
2022-09-10T23:55:45.306Z,101181.00
2022-09-10T23:58:19.041Z,101180.00
